Time;durP1;ratioP1;P1;durP2;ratioP2;P2;SDS_P1;SDS_P2;PMS_P1;PMS_P2;Temp;Humidity;BMP_temperature;BMP_pressure;BME280_temperature;BME280_humidity;BME280_pressure;Samples;Min_cycle;Max_cycle;Signal;HPM_P1;HPM_P2
2023/02/03 00:01:37;;;;;;;10.23;4.00;;;4.10;99.90;;;;;;5058841;28;20465;-69
2023/02/03 00:04:04;;;;;;;7.87;4.20;;;4.10;99.90;;;;;;5058299;28;20455;-68
2023/02/03 00:06:31;;;;;;;10.20;4.00;;;4.10;99.90;;;;;;5058278;28;20534;-68
2023/02/03 00:09:00;;;;;;;7.10;3.93;;;4.10;99.90;;;;;;5058626;28;20779;-67
2023/02/03 00:11:29;;;;;;;9.17;3.03;;;4.10;99.90;;;;;;5058733;28;20470;-69
2023/02/03 00:13:56;;;;;;;6.40;3.47;;;4.10;99.90;;;;;;5058512;28;20495;-68
2023/02/03 00:16:23;;;;;;;6.93;3.40;;;4.00;99.90;;;;;;5058753;28;20483;-67
2023/02/03 00:18:51;;;;;;;8.00;3.40;;;4.00;99.90;;;;;;5059391;28;20459;-68
2023/02/03 00:21:18;;;;;;;15.87;3.83;;;4.00;99.90;;;;;;5059120;28;20550;-68
2023/02/03 00:23:44;;;;;;;6.70;3.00;;;4.00;99.90;;;;;;5058678;28;20550;-69
2023/02/03 00:26:13;;;;;;;7.33;3.50;;;4.00;99.90;;;;;;5058564;28;20461;-69
2023/02/03 00:28:39;;;;;;;6.50;3.03;;;4.00;99.90;;;;;;5058348;28;20784;-69
2023/02/03 00:31:14;;;;;;;6.30;3.00;;;4.00;99.90;;;;;;5057868;28;20477;-69
2023/02/03 00:33:40;;;;;;;5.80;3.40;;;3.90;99.90;;;;;;5057943;28;20522;-69
2023/02/03 00:36:10;;;;;;;9.43;4.00;;;3.90;99.90;;;;;;5057740;28;20479;-68
2023/02/03 00:38:37;;;;;;;6.90;3.70;;;3.80;99.90;;;;;;5058314;28;20511;-68
2023/02/03 00:41:04;;;;;;;8.20;3.50;;;3.80;99.90;;;;;;5056850;28;20460;-69
2023/02/03 00:43:31;;;;;;;9.10;4.10;;;3.70;99.90;;;;;;5056852;28;20493;-68
2023/02/03 00:45:58;;;;;;;8.00;3.83;;;3.70;99.90;;;;;;5056475;28;20455;-69
2023/02/03 00:48:25;;;;;;;8.33;3.23;;;3.70;99.90;;;;;;5056615;28;20534;-68
2023/02/03 00:50:52;;;;;;;7.37;3.50;;;3.70;99.90;;;;;;5056958;28;20502;-69
2023/02/03 00:53:20;;;;;;;8.27;3.60;;;3.70;99.90;;;;;;5056667;28;20550;-69
2023/02/03 00:55:47;;;;;;;17.13;5.70;;;3.70;99.90;;;;;;5057807;28;20856;-67
2023/02/03 00:58:14;;;;;;;7.73;3.87;;;3.60;99.90;;;;;;5057191;28;20454;-69
2023/02/03 01:00:40;;;;;;;12.47;4.40;;;3.60;99.90;;;;;;5057544;28;20978;-68
2023/02/03 01:03:07;;;;;;;6.67;4.60;;;3.60;99.90;;;;;;5056855;28;20454;-69
2023/02/03 01:05:34;;;;;;;9.70;4.70;;;3.60;99.90;;;;;;5056514;28;20911;-69
2023/02/03 01:08:01;;;;;;;13.20;5.40;;;3.60;99.90;;;;;;5056748;28;20939;-69
2023/02/03 01:10:30;;;;;;;19.10;5.10;;;3.60;99.90;;;;;;5056567;28;20451;-69
2023/02/03 01:12:57;;;;;;;6.30;4.73;;;3.50;99.90;;;;;;5056722;28;20550;-67
2023/02/03 01:15:24;;;;;;;12.00;4.77;;;3.60;99.90;;;;;;5056753;28;20935;-68
2023/02/03 01:17:51;;;;;;;9.23;5.10;;;3.50;99.90;;;;;;5056630;28;21019;-68
2023/02/03 01:20:20;;;;;;;11.33;4.90;;;3.50;99.90;;;;;;5056925;28;20509;-69
2023/02/03 01:22:47;;;;;;;7.67;4.50;;;3.50;99.90;;;;;;5056555;28;20455;-70
2023/02/03 01:25:14;;;;;;;9.60;4.30;;;3.50;99.90;;;;;;5057330;28;20451;-68
2023/02/03 01:27:42;;;;;;;13.73;5.33;;;3.50;99.90;;;;;;5057077;28;20543;-68
2023/02/03 01:30:10;;;;;;;12.80;5.43;;;3.40;99.90;;;;;;5058984;28;20466;-67
2023/02/03 01:32:37;;;;;;;9.53;4.90;;;3.50;99.90;;;;;;5056597;28;20463;-69
2023/02/03 01:35:04;;;;;;;12.43;5.30;;;3.40;99.90;;;;;;5055688;28;20596;-70
2023/02/03 01:37:30;;;;;;;9.83;4.90;;;3.40;99.90;;;;;;5056801;28;20478;-69
2023/02/03 01:39:57;;;;;;;11.03;5.80;;;3.40;99.90;;;;;;5056367;28;20570;-69
2023/02/03 01:42:24;;;;;;;7.83;4.80;;;3.30;99.90;;;;;;5056390;28;20527;-67
2023/02/03 01:44:53;;;;;;;9.23;5.83;;;3.30;99.90;;;;;;5056577;28;20574;-69
2023/02/03 01:47:29;;;;;;;14.20;5.60;;;3.20;99.90;;;;;;5056229;28;20511;-67
2023/02/03 01:50:04;;;;;;;7.93;5.27;;;3.20;99.90;;;;;;5057194;28;20443;-69
2023/02/03 01:52:32;;;;;;;10.63;5.63;;;3.10;99.90;;;;;;5059490;28;20512;-68
2023/02/03 01:55:02;;;;;;;11.53;5.73;;;3.10;99.90;;;;;;5059924;28;20470;-70
2023/02/03 01:57:34;;;;;;;7.60;5.40;;;3.10;99.90;;;;;;5059751;28;20548;-69
2023/02/03 02:00:05;;;;;;;8.20;4.70;;;3.10;99.90;;;;;;5060142;28;20443;-70
2023/02/03 02:02:32;;;;;;;7.07;4.57;;;3.00;99.90;;;;;;5059651;28;20449;-69
2023/02/03 02:05:05;;;;;;;15.20;5.77;;;3.00;99.90;;;;;;5060848;28;20518;-69
2023/02/03 02:07:33;;;;;;;6.10;4.80;;;3.00;99.90;;;;;;5059518;28;20845;-68
2023/02/03 02:10:01;;;;;;;10.77;5.47;;;3.10;99.90;;;;;;5059956;28;20455;-69
2023/02/03 02:12:28;;;;;;;7.17;5.70;;;3.00;99.90;;;;;;5059333;28;20484;-68
2023/02/03 02:14:55;;;;;;;9.47;5.63;;;3.00;99.90;;;;;;5059073;28;20791;-67
2023/02/03 02:17:47;;;;;;;12.70;5.20;;;3.00;99.90;;;;;;5058326;28;20509;-69
2023/02/03 02:20:32;;;;;;;7.73;5.80;;;3.10;99.90;;;;;;5056931;28;20459;-69
2023/02/03 02:23:30;;;;;;;7.70;5.80;;;3.00;99.90;;;;;;5058343;28;20770;-67
2023/02/03 02:26:34;;;;;;;9.30;6.20;;;3.00;99.90;;;;;;5058836;28;20556;-69
2023/02/03 02:29:18;;;;;;;7.27;5.50;;;3.00;99.90;;;;;;5058062;28;20533;-70
2023/02/03 02:31:56;;;;;;;6.33;4.80;;;3.00;99.90;;;;;;5056198;28;20444;-69
2023/02/03 02:34:37;;;;;;;7.57;4.87;;;3.00;99.90;;;;;;5055440;28;20436;-69
2023/02/03 02:37:09;;;;;;;6.70;5.60;;;2.90;99.90;;;;;;5054610;28;20471;-71
2023/02/03 02:39:43;;;;;;;8.40;5.60;;;2.90;99.90;;;;;;5054324;28;20884;-71
2023/02/03 02:42:15;;;;;;;7.90;5.57;;;2.90;99.90;;;;;;5054792;28;20521;-71
2023/02/03 02:44:48;;;;;;;7.60;6.23;;;2.90;99.90;;;;;;5056037;28;20485;-70
2023/02/03 02:47:20;;;;;;;10.30;5.60;;;2.80;99.90;;;;;;5060250;28;20779;-69
2023/02/03 02:49:53;;;;;;;8.60;6.80;;;2.80;99.90;;;;;;5060401;28;20535;-69
2023/02/03 02:52:22;;;;;;;10.57;6.93;;;2.80;99.90;;;;;;5054962;28;20443;-70
2023/02/03 02:54:54;;;;;;;8.00;5.90;;;2.70;99.90;;;;;;5054727;28;20465;-70
2023/02/03 02:57:23;;;;;;;7.83;6.13;;;2.70;99.90;;;;;;5057648;28;20566;-71
2023/02/03 02:59:50;;;;;;;7.70;5.67;;;2.70;99.90;;;;;;5058358;28;20927;-70
2023/02/03 03:02:18;;;;;;;8.40;6.20;;;2.60;99.90;;;;;;5058972;28;20459;-70
2023/02/03 03:04:47;;;;;;;11.50;5.20;;;2.60;99.90;;;;;;5058077;28;20900;-69
2023/02/03 03:07:18;;;;;;;8.83;5.23;;;2.60;99.90;;;;;;5057573;28;20455;-70
2023/02/03 03:09:48;;;;;;;7.80;5.73;;;2.60;99.90;;;;;;5059380;28;20763;-71
2023/02/03 03:12:20;;;;;;;7.77;5.73;;;2.60;99.90;;;;;;5059355;28;20455;-70
2023/02/03 03:14:50;;;;;;;5.87;5.00;;;2.60;99.90;;;;;;5062261;28;20449;-71
2023/02/03 03:17:23;;;;;;;7.47;6.40;;;2.60;99.90;;;;;;5062779;28;20493;-69
2023/02/03 03:19:55;;;;;;;6.20;5.23;;;2.60;99.90;;;;;;5062450;28;20456;-70
2023/02/03 03:22:28;;;;;;;6.27;5.10;;;2.60;99.90;;;;;;5060564;28;20440;-69
2023/02/03 03:25:01;;;;;;;6.53;4.80;;;2.70;99.90;;;;;;5063246;28;20439;-70
2023/02/03 03:27:33;;;;;;;7.40;5.47;;;2.70;99.90;;;;;;5058047;28;20615;-71
2023/02/03 03:30:05;;;;;;;6.13;4.50;;;2.70;99.90;;;;;;5059335;28;20439;-69
2023/02/03 03:32:33;;;;;;;10.07;5.00;;;2.70;99.90;;;;;;5059738;28;20469;-70
2023/02/03 03:35:02;;;;;;;7.03;5.07;;;2.70;99.90;;;;;;5060943;28;20455;-70
2023/02/03 03:37:35;;;;;;;7.70;5.50;;;2.70;99.90;;;;;;5059661;28;20491;-71
2023/02/03 03:40:09;;;;;;;5.97;5.37;;;2.70;99.90;;;;;;5060764;28;20526;-69
2023/02/03 03:42:42;;;;;;;6.63;4.90;;;2.80;99.90;;;;;;5062505;28;20821;-70
2023/02/03 03:45:16;;;;;;;6.20;5.00;;;2.80;99.90;;;;;;5062568;28;20502;-69
2023/02/03 03:47:50;;;;;;;5.40;4.37;;;2.80;99.90;;;;;;5063589;28;20463;-70
2023/02/03 03:50:21;;;;;;;5.57;4.30;;;2.80;99.90;;;;;;5059593;28;20443;-69
2023/02/03 03:52:51;;;;;;;6.33;4.10;;;2.80;99.90;;;;;;5060012;28;20444;-70
2023/02/03 03:55:20;;;;;;;5.40;4.90;;;2.90;99.90;;;;;;5058225;28;20553;-68
2023/02/03 03:57:54;;;;;;;6.17;4.57;;;2.90;99.90;;;;;;5057633;28;20987;-70
2023/02/03 04:00:25;;;;;;;6.23;4.67;;;2.90;99.90;;;;;;5058391;28;20442;-71
2023/02/03 04:02:56;;;;;;;5.33;4.10;;;3.00;99.90;;;;;;5058548;28;20455;-69
2023/02/03 04:05:24;;;;;;;6.37;4.53;;;3.00;99.90;;;;;;5060566;28;20452;-70
2023/02/03 04:07:50;;;;;;;5.43;4.77;;;3.10;99.90;;;;;;5058060;28;20941;-69
2023/02/03 04:10:25;;;;;;;6.57;5.13;;;3.10;99.90;;;;;;5057841;28;20554;-69
2023/02/03 04:12:52;;;;;;;6.00;4.87;;;3.10;99.90;;;;;;5057613;28;20439;-70
2023/02/03 04:15:19;;;;;;;5.53;4.70;;;3.20;99.90;;;;;;5058017;28;20562;-69
2023/02/03 04:17:45;;;;;;;5.47;4.60;;;3.20;99.90;;;;;;5057537;28;20963;-70
2023/02/03 04:20:14;;;;;;;6.17;5.03;;;3.30;99.90;;;;;;5057728;28;20459;-69
2023/02/03 04:22:42;;;;;;;6.00;4.73;;;3.40;99.90;;;;;;5059654;28;20455;-69
2023/02/03 04:25:09;;;;;;;5.83;4.70;;;3.40;99.90;;;;;;5059712;28;20473;-70
2023/02/03 04:27:36;;;;;;;4.90;4.40;;;3.50;99.90;;;;;;5058063;28;20754;-71
2023/02/03 04:30:03;;;;;;;5.73;5.07;;;3.50;99.90;;;;;;5057851;28;20542;-69
2023/02/03 04:32:30;;;;;;;6.90;4.97;;;3.60;99.90;;;;;;5056885;28;20459;-70
2023/02/03 04:34:57;;;;;;;8.40;5.63;;;3.60;99.90;;;;;;5056664;28;20459;-70
2023/02/03 04:37:26;;;;;;;6.80;5.73;;;3.60;99.90;;;;;;5057156;28;21051;-70
2023/02/03 04:39:54;;;;;;;7.33;6.07;;;3.70;99.90;;;;;;5058424;28;20813;-70
2023/02/03 04:42:21;;;;;;;8.67;6.97;;;3.70;99.90;;;;;;5057935;28;20462;-69
2023/02/03 04:44:48;;;;;;;9.77;6.70;;;3.80;99.90;;;;;;5056527;28;20525;-68
2023/02/03 04:47:15;;;;;;;12.70;8.67;;;3.90;99.90;;;;;;5057283;28;20542;-69
2023/02/03 04:49:42;;;;;;;10.27;7.67;;;3.90;99.90;;;;;;5057011;28;20465;-70
2023/02/03 04:52:09;;;;;;;14.13;9.30;;;3.90;99.90;;;;;;5056912;28;20459;-69
2023/02/03 04:54:38;;;;;;;9.20;7.53;;;4.00;99.90;;;;;;5058242;28;20485;-70
2023/02/03 04:57:05;;;;;;;11.77;8.57;;;4.10;99.90;;;;;;5058527;28;20482;-68
2023/02/03 04:59:33;;;;;;;13.13;8.73;;;4.10;99.90;;;;;;5058558;28;20459;-71
2023/02/03 05:02:02;;;;;;;14.73;9.40;;;4.20;99.90;;;;;;5058231;28;20972;-70
2023/02/03 05:04:28;;;;;;;12.87;9.10;;;4.30;99.90;;;;;;5056563;28;20459;-70
2023/02/03 05:06:56;;;;;;;13.47;9.27;;;4.30;99.90;;;;;;5057557;28;20535;-69
2023/02/03 05:09:23;;;;;;;19.57;10.87;;;4.40;99.90;;;;;;5057160;28;20471;-70
2023/02/03 05:11:51;;;;;;;13.70;10.37;;;4.50;99.90;;;;;;5057746;28;20849;-70
2023/02/03 05:14:18;;;;;;;18.90;12.90;;;4.60;99.90;;;;;;5056861;28;20469;-70
2023/02/03 05:16:45;;;;;;;21.87;13.30;;;4.70;99.90;;;;;;5056255;28;20550;-70
2023/02/03 05:19:12;;;;;;;23.17;14.50;;;4.90;99.90;;;;;;5056135;28;20509;-68
2023/02/03 05:21:39;;;;;;;21.97;14.03;;;5.00;99.90;;;;;;5058089;28;20551;-68
2023/02/03 05:24:06;;;;;;;28.80;17.00;;;5.10;99.90;;;;;;5055786;28;20533;-69
2023/02/03 05:26:34;;;;;;;28.47;17.90;;;5.20;99.90;;;;;;5055699;28;20545;-70
2023/02/03 05:29:02;;;;;;;29.03;18.10;;;5.30;99.90;;;;;;5055667;28;20450;-70
2023/02/03 05:31:29;;;;;;;31.70;19.30;;;5.40;99.90;;;;;;5055253;28;20485;-69
2023/02/03 05:33:56;;;;;;;33.03;19.43;;;5.50;99.90;;;;;;5055877;28;20801;-69
2023/02/03 05:36:22;;;;;;;31.03;18.67;;;5.50;99.90;;;;;;5055854;28;20545;-71
2023/02/03 05:38:49;;;;;;;35.40;19.50;;;5.70;99.90;;;;;;5055650;28;20478;-69
2023/02/03 05:44:07;;;;;;;36.00;19.27;;;5.80;99.90;;;;;;5040678;28;20475;-70
2023/02/03 05:46:34;;;;;;;32.20;20.60;;;5.90;99.90;;;;;;5056479;28;20550;-70
2023/02/03 05:49:01;;;;;;;32.73;19.77;;;5.90;99.90;;;;;;5056659;28;20542;-70
2023/02/03 05:51:28;;;;;;;33.93;20.67;;;6.00;99.90;;;;;;5055847;28;20461;-69
2023/02/03 05:53:55;;;;;;;33.40;19.43;;;6.00;99.90;;;;;;5056049;28;20451;-69
2023/02/03 05:56:22;;;;;;;41.63;21.97;;;6.10;99.90;;;;;;5055889;28;20498;-69
2023/02/03 05:58:50;;;;;;;33.47;20.00;;;6.20;99.90;;;;;;5055497;28;20483;-69
2023/02/03 06:01:19;;;;;;;34.33;21.40;;;6.30;99.90;;;;;;5056088;28;20458;-68
2023/02/03 06:03:46;;;;;;;39.43;23.30;;;6.30;99.90;;;;;;5055419;28;20451;-69
2023/02/03 06:06:13;;;;;;;40.87;22.00;;;6.40;99.90;;;;;;5056481;28;20546;-70
2023/02/03 06:08:39;;;;;;;40.00;22.40;;;6.40;99.90;;;;;;5057397;28;20537;-69
2023/02/03 06:11:06;;;;;;;37.20;21.57;;;6.50;99.90;;;;;;5058295;28;20466;-70
2023/02/03 06:13:33;;;;;;;37.47;23.13;;;6.60;99.90;;;;;;5056594;28;20455;-69
2023/02/03 06:16:00;;;;;;;33.77;21.37;;;6.60;99.90;;;;;;5055378;28;20451;-68
2023/02/03 06:18:28;;;;;;;35.03;20.23;;;6.60;99.90;;;;;;5054755;28;20489;-69
2023/02/03 06:20:55;;;;;;;31.70;19.93;;;6.60;99.90;;;;;;5055501;28;20516;-69
2023/02/03 06:23:22;;;;;;;35.67;21.43;;;6.70;99.90;;;;;;5055523;28;20526;-69
2023/02/03 06:25:50;;;;;;;33.37;20.90;;;6.80;99.90;;;;;;5056355;28;20458;-69
2023/02/03 06:28:18;;;;;;;34.20;19.07;;;6.80;99.90;;;;;;5056372;28;20541;-69
2023/02/03 06:30:44;;;;;;;30.93;19.63;;;6.80;99.90;;;;;;5059458;28;20501;-69
2023/02/03 06:33:11;;;;;;;35.63;20.60;;;6.80;99.90;;;;;;5061243;28;20454;-69
2023/02/03 06:35:39;;;;;;;38.33;21.83;;;6.80;99.90;;;;;;5062379;28;20541;-69
2023/02/03 06:38:06;;;;;;;32.53;20.37;;;6.90;99.90;;;;;;5060719;28;20796;-70
2023/02/03 06:40:33;;;;;;;33.27;19.47;;;6.90;99.90;;;;;;5061386;28;20454;-69
2023/02/03 06:43:00;;;;;;;32.93;20.90;;;6.90;99.90;;;;;;5062247;28;20558;-69
2023/02/03 06:45:27;;;;;;;35.00;20.90;;;6.90;99.90;;;;;;5062134;28;20549;-68
2023/02/03 06:47:53;;;;;;;36.13;19.57;;;7.00;99.90;;;;;;5061953;28;20451;-69
2023/02/03 06:50:20;;;;;;;34.40;19.80;;;7.00;99.90;;;;;;5060700;28;20455;-69
2023/02/03 06:52:49;;;;;;;33.80;19.63;;;7.00;99.90;;;;;;5060738;28;20765;-69
2023/02/03 06:55:16;;;;;;;31.40;18.07;;;7.00;99.90;;;;;;5061408;28;20469;-69
2023/02/03 06:57:44;;;;;;;32.97;18.80;;;7.00;99.90;;;;;;5062297;28;20558;-70
2023/02/03 07:00:13;;;;;;;33.90;19.40;;;7.10;99.90;;;;;;5061406;28;20518;-69
2023/02/03 07:02:40;;;;;;;26.80;19.33;;;7.10;99.90;;;;;;5059492;28;20459;-70
2023/02/03 07:05:07;;;;;;;30.40;18.83;;;7.10;99.90;;;;;;5058162;28;20859;-70
2023/02/03 07:07:34;;;;;;;32.20;18.37;;;7.10;99.90;;;;;;5057807;28;20455;-70
2023/02/03 07:10:03;;;;;;;28.67;19.40;;;7.10;99.90;;;;;;5058165;28;20469;-70
2023/02/03 07:12:30;;;;;;;27.63;18.30;;;7.20;99.90;;;;;;5057711;28;20458;-69
2023/02/03 07:14:57;;;;;;;32.90;19.20;;;7.20;99.90;;;;;;5062345;28;20469;-71
2023/02/03 07:17:24;;;;;;;26.40;17.93;;;7.20;99.90;;;;;;5064459;28;20560;-70
2023/02/03 07:19:51;;;;;;;29.20;18.07;;;7.20;99.90;;;;;;5081035;28;20540;-70
2023/02/03 07:22:18;;;;;;;24.50;17.20;;;7.30;99.90;;;;;;5082329;28;20537;-70
2023/02/03 07:24:45;;;;;;;28.53;17.77;;;7.30;99.90;;;;;;5078108;28;20537;-69
2023/02/03 07:27:13;;;;;;;24.80;17.67;;;7.20;99.90;;;;;;5078469;28;20460;-70
2023/02/03 07:29:40;;;;;;;28.33;18.87;;;7.20;99.90;;;;;;5079020;28;20452;-70
2023/02/03 07:32:07;;;;;;;25.57;18.20;;;7.20;99.90;;;;;;5079824;28;20446;-70
2023/02/03 07:34:33;;;;;;;25.73;17.47;;;7.30;99.90;;;;;;5078947;28;20557;-69
2023/02/03 07:37:00;;;;;;;28.00;17.57;;;7.30;99.90;;;;;;5078634;28;20793;-69
2023/02/03 07:39:27;;;;;;;23.90;17.03;;;7.30;99.90;;;;;;5078014;28;20486;-70
2023/02/03 07:41:54;;;;;;;28.60;17.60;;;7.30;99.90;;;;;;5069879;28;20508;-68
2023/02/03 07:44:22;;;;;;;29.43;17.63;;;7.30;99.90;;;;;;5059582;28;20578;-70
2023/02/03 07:46:49;;;;;;;25.40;16.70;;;7.30;99.90;;;;;;5059193;28;20513;-71
2023/02/03 07:49:16;;;;;;;24.37;17.17;;;7.30;99.90;;;;;;5057511;28;20470;-69
2023/02/03 07:51:43;;;;;;;29.53;16.43;;;7.30;99.90;;;;;;5057195;28;20490;-70
2023/02/03 07:54:10;;;;;;;21.47;16.10;;;7.40;99.90;;;;;;5056371;28;20459;-68
2023/02/03 07:56:37;;;;;;;23.93;15.47;;;7.40;99.90;;;;;;5056179;28;20796;-68
2023/02/03 07:59:03;;;;;;;21.10;15.10;;;7.40;99.90;;;;;;5057192;28;20855;-70
2023/02/03 08:01:32;;;;;;;24.77;16.27;;;7.40;99.90;;;;;;5056957;28;20834;-69
2023/02/03 08:04:00;;;;;;;18.63;15.07;;;7.40;99.90;;;;;;5056394;28;20450;-69
2023/02/03 08:06:29;;;;;;;20.10;15.13;;;7.40;99.90;;;;;;5056950;28;20491;-70
2023/02/03 08:08:56;;;;;;;18.60;13.23;;;7.40;99.90;;;;;;5056732;28;20472;-69
2023/02/03 08:11:23;;;;;;;17.47;13.87;;;7.40;99.90;;;;;;5056092;28;20463;-70
2023/02/03 08:13:50;;;;;;;29.63;14.53;;;7.40;99.90;;;;;;5056364;28;20542;-70
2023/02/03 08:16:16;;;;;;;18.80;14.17;;;7.40;99.90;;;;;;5056284;28;20562;-69
2023/02/03 08:18:45;;;;;;;17.43;13.27;;;7.40;99.90;;;;;;5056308;28;20987;-70
2023/02/03 08:21:11;;;;;;;17.67;13.33;;;7.40;99.90;;;;;;5057062;28;20848;-70
2023/02/03 08:23:38;;;;;;;17.70;12.50;;;7.40;99.90;;;;;;5055879;28;20455;-70
2023/02/03 08:26:05;;;;;;;16.10;11.57;;;7.40;99.90;;;;;;5056451;28;20780;-70
2023/02/03 08:28:32;;;;;;;18.17;13.87;;;7.40;99.90;;;;;;5056942;28;20451;-70
2023/02/03 08:30:59;;;;;;;17.83;13.03;;;7.40;99.90;;;;;;5057457;28;20770;-70
2023/02/03 08:33:27;;;;;;;18.17;13.07;;;7.40;99.90;;;;;;5056228;28;20518;-70
2023/02/03 08:35:56;;;;;;;18.30;12.47;;;7.40;99.90;;;;;;5055667;28;20455;-70
2023/02/03 08:38:23;;;;;;;17.40;12.77;;;7.40;99.90;;;;;;5055998;28;20958;-69
2023/02/03 08:40:49;;;;;;;16.50;12.27;;;7.40;99.90;;;;;;5055692;28;20465;-71
2023/02/03 08:43:16;;;;;;;16.70;12.37;;;7.40;99.90;;;;;;5055545;28;20486;-69
2023/02/03 08:45:43;;;;;;;18.27;13.40;;;7.40;99.90;;;;;;5056007;28;21015;-70
2023/02/03 08:48:10;;;;;;;16.33;11.50;;;7.40;99.90;;;;;;5055726;28;20541;-70
2023/02/03 08:50:37;;;;;;;16.07;11.80;;;7.40;99.90;;;;;;5055967;28;20455;-71
2023/02/03 08:53:05;;;;;;;15.10;11.30;;;7.40;99.90;;;;;;5055525;28;20941;-69
2023/02/03 08:55:32;;;;;;;14.37;11.00;;;7.40;99.90;;;;;;5056606;28;20981;-68
2023/02/03 08:57:59;;;;;;;17.10;10.57;;;7.40;99.90;;;;;;5057058;28;20543;-70
2023/02/03 09:00:26;;;;;;;15.23;10.70;;;7.40;99.90;;;;;;5055888;28;20792;-70
2023/02/03 09:02:53;;;;;;;12.33;9.90;;;7.40;99.90;;;;;;5055621;28;20911;-69
2023/02/03 09:05:20;;;;;;;17.00;9.70;;;7.50;99.90;;;;;;5055556;28;20932;-70
2023/02/03 09:07:47;;;;;;;13.70;10.57;;;7.40;99.90;;;;;;5056552;28;20545;-70
2023/02/03 09:10:15;;;;;;;11.43;9.80;;;7.50;99.90;;;;;;5055534;28;20491;-68
2023/02/03 09:12:42;;;;;;;18.53;9.50;;;7.50;99.90;;;;;;5055211;28;20470;-70
2023/02/03 09:15:10;;;;;;;13.33;9.80;;;7.50;99.90;;;;;;5055028;28;20942;-69
2023/02/03 09:17:37;;;;;;;10.90;9.13;;;7.50;99.90;;;;;;5055222;28;20482;-69
2023/02/03 09:20:04;;;;;;;12.50;9.60;;;7.50;99.90;;;;;;5056186;28;20482;-69
2023/02/03 09:22:31;;;;;;;10.67;8.67;;;7.50;99.90;;;;;;5055025;28;20455;-70
2023/02/03 09:24:58;;;;;;;10.60;8.03;;;7.50;99.90;;;;;;5054676;28;20941;-70
2023/02/03 09:27:26;;;;;;;8.87;7.97;;;7.60;99.90;;;;;;5054696;28;20455;-69
2023/02/03 09:29:53;;;;;;;9.53;8.20;;;7.60;99.90;;;;;;5054996;28;20462;-72
2023/02/03 09:32:19;;;;;;;12.63;9.40;;;7.60;99.90;;;;;;5054984;28;20460;-70
2023/02/03 09:34:46;;;;;;;11.07;6.93;;;7.60;99.90;;;;;;5054407;28;20836;-70
2023/02/03 09:37:13;;;;;;;10.10;7.80;;;7.60;99.90;;;;;;5054967;28;20974;-71
2023/02/03 09:39:40;;;;;;;8.77;7.20;;;7.70;99.90;;;;;;5054845;28;20669;-71
2023/02/03 09:42:19;;;;;;;12.63;7.27;;;7.70;99.90;;;;;;5054744;28;20924;-69
2023/02/03 09:44:56;;;;;;;7.03;6.33;;;7.70;99.90;;;;;;5054065;28;20487;-69
2023/02/03 09:47:26;;;;;;;8.23;6.47;;;7.70;99.90;;;;;;5054584;28;20528;-70
2023/02/03 09:49:58;;;;;;;7.70;6.50;;;7.70;99.90;;;;;;5054974;28;20983;-70
2023/02/03 09:52:27;;;;;;;7.93;6.57;;;7.70;99.90;;;;;;5054808;28;20455;-69
2023/02/03 09:55:01;;;;;;;9.50;7.30;;;7.70;99.90;;;;;;5055097;28;20507;-69
2023/02/03 09:57:31;;;;;;;6.93;5.50;;;7.70;99.90;;;;;;5054832;28;20457;-69
2023/02/03 10:00:04;;;;;;;7.60;6.50;;;7.70;99.90;;;;;;5054488;28;20482;-69
2023/02/03 10:02:44;;;;;;;7.77;6.13;;;7.80;99.90;;;;;;5054585;28;20807;-69
2023/02/03 10:05:17;;;;;;;12.33;5.93;;;7.80;99.90;;;;;;5058152;28;20442;-69
2023/02/03 10:07:55;;;;;;;8.27;5.60;;;7.80;99.90;;;;;;5061000;28;20453;-69
2023/02/03 10:10:33;;;;;;;7.77;5.73;;;7.80;99.90;;;;;;5061990;28;20473;-69
2023/02/03 10:13:24;;;;;;;10.60;4.67;;;7.90;99.90;;;;;;5061577;28;20447;-70
2023/02/03 10:16:06;;;;;;;5.50;4.73;;;7.90;99.90;;;;;;5061355;28;20830;-71
2023/02/03 10:18:39;;;;;;;6.73;5.20;;;7.90;99.90;;;;;;5061065;28;20453;-69
2023/02/03 10:21:15;;;;;;;5.63;4.33;;;7.90;99.90;;;;;;5061277;28;20450;-70
2023/02/03 10:23:45;;;;;;;5.37;4.70;;;7.90;99.90;;;;;;5061129;28;20477;-70
2023/02/03 10:26:17;;;;;;;6.80;5.33;;;8.00;99.90;;;;;;5061593;28;20848;-70
2023/02/03 10:28:52;;;;;;;7.57;4.40;;;8.00;99.90;;;;;;5061389;28;20443;-70
2023/02/03 10:31:22;;;;;;;6.10;4.73;;;8.10;99.90;;;;;;5061007;28;20434;-70
2023/02/03 10:33:58;;;;;;;4.00;3.50;;;8.10;99.90;;;;;;5061099;28;20443;-70
2023/02/03 10:36:36;;;;;;;4.40;3.20;;;8.10;99.90;;;;;;5062029;28;20720;-68
2023/02/03 10:39:13;;;;;;;5.90;3.43;;;8.10;99.90;;;;;;5061078;28;20574;-68
2023/02/03 10:41:39;;;;;;;2.93;2.23;;;8.20;99.90;;;;;;5061339;28;20453;-68
2023/02/03 10:44:12;;;;;;;3.37;2.20;;;8.20;99.90;;;;;;5061156;28;20561;-69
2023/02/03 10:46:42;;;;;;;2.33;1.07;;;8.10;99.90;;;;;;5061953;28;20485;-70
2023/02/03 10:49:11;;;;;;;7.30;1.40;;;7.70;99.90;;;;;;5061821;28;20754;-69
2023/02/03 10:51:41;;;;;;;6.87;2.00;;;7.50;99.90;;;;;;5060983;28;20520;-69
2023/02/03 10:54:28;;;;;;;6.63;1.30;;;7.40;99.90;;;;;;5060372;28;20485;-69
2023/02/03 10:56:57;;;;;;;3.90;1.27;;;7.30;99.90;;;;;;5061373;28;20456;-68
2023/02/03 10:59:29;;;;;;;3.80;1.33;;;7.30;99.90;;;;;;5072626;28;20491;-68
2023/02/03 11:01:58;;;;;;;8.37;1.83;;;7.30;99.90;;;;;;5081127;28;20496;-70
2023/02/03 11:04:27;;;;;;;13.60;2.57;;;7.30;99.90;;;;;;5081003;28;20549;-69
2023/02/03 11:06:56;;;;;;;9.50;2.60;;;7.40;99.90;;;;;;5081033;28;20941;-70
2023/02/03 11:09:31;;;;;;;13.40;2.20;;;7.40;99.90;;;;;;5079402;28;20497;-69
2023/02/03 11:12:11;;;;;;;6.70;2.30;;;7.40;99.90;;;;;;5082141;28;20522;-69
2023/02/03 11:14:40;;;;;;;14.20;1.97;;;7.50;99.90;;;;;;5081798;28;20442;-69
2023/02/03 11:17:15;;;;;;;9.73;2.87;;;7.50;99.90;;;;;;5077408;28;20519;-68
2023/02/03 11:19:44;;;;;;;8.03;2.30;;;7.50;99.90;;;;;;5077634;28;20941;-69
2023/02/03 11:22:12;;;;;;;6.10;1.60;;;7.50;99.90;;;;;;5078077;28;20489;-68
2023/02/03 11:24:41;;;;;;;6.03;2.50;;;7.60;99.90;;;;;;5077671;28;20462;-68
2023/02/03 11:27:12;;;;;;;8.47;2.00;;;7.70;99.90;;;;;;5077133;28;20561;-69
2023/02/03 11:29:42;;;;;;;14.70;2.40;;;7.70;99.90;;;;;;5077834;28;20475;-69
2023/02/03 11:32:20;;;;;;;9.33;2.13;;;7.80;99.90;;;;;;5078390;28;20457;-69
2023/02/03 11:34:59;;;;;;;6.20;2.20;;;7.80;99.90;;;;;;5080446;28;20914;-68
2023/02/03 11:37:28;;;;;;;7.87;2.03;;;7.80;99.90;;;;;;5080050;28;20439;-69
2023/02/03 11:40:23;;;;;;;10.47;2.80;;;7.80;99.90;;;;;;5079259;28;20580;-70
2023/02/03 11:43:01;;;;;;;9.37;2.23;;;7.80;99.90;;;;;;5077732;28;20947;-67
2023/02/03 11:45:29;;;;;;;8.47;3.10;;;7.80;99.90;;;;;;5078257;28;20525;-68
2023/02/03 11:48:00;;;;;;;7.50;2.13;;;7.90;99.90;;;;;;5079197;28;20458;-68
2023/02/03 11:50:31;;;;;;;18.00;3.47;;;7.90;99.90;;;;;;5080683;28;20442;-69
2023/02/03 11:53:14;;;;;;;9.30;2.50;;;8.00;99.90;;;;;;5081515;28;20449;-67
2023/02/03 11:55:52;;;;;;;14.40;3.00;;;8.10;99.90;;;;;;5082678;28;20458;-70
2023/02/03 11:58:58;;;;;;;13.30;3.70;;;8.20;99.90;;;;;;5084250;28;20435;-69
2023/02/03 12:01:52;;;;;;;15.73;3.20;;;8.30;99.90;;;;;;5075071;28;20617;-69
2023/02/03 12:04:36;;;;;;;8.97;3.07;;;8.40;99.90;;;;;;5083614;28;20466;-68
2023/02/03 12:07:39;;;;;;;14.63;3.07;;;8.50;99.90;;;;;;5083723;28;20470;-68
2023/02/03 12:10:17;;;;;;;13.97;4.10;;;8.60;99.90;;;;;;5075273;28;20450;-69
2023/02/03 12:12:51;;;;;;;14.87;3.00;;;8.70;99.90;;;;;;5077511;28;20445;-68
2023/02/03 12:15:45;;;;;;;12.33;3.47;;;8.90;99.90;;;;;;5082548;28;20474;-68
2023/02/03 12:18:33;;;;;;;8.40;3.87;;;9.00;99.90;;;;;;5082152;28;20761;-69
2023/02/03 12:21:10;;;;;;;14.60;3.20;;;9.20;99.90;;;;;;5082044;28;20549;-67
2023/02/03 12:23:53;;;;;;;15.17;4.00;;;9.20;99.90;;;;;;5080898;28;20457;-69
2023/02/03 12:26:22;;;;;;;12.80;3.80;;;9.20;99.90;;;;;;5082012;28;20525;-68
2023/02/03 12:28:58;;;;;;;20.50;3.60;;;9.20;99.90;;;;;;5082443;28;20515;-70
2023/02/03 12:31:32;;;;;;;18.07;3.43;;;9.20;99.90;;;;;;5083350;28;20438;-68
2023/02/03 12:34:10;;;;;;;16.47;4.80;;;9.20;99.90;;;;;;5082311;28;20518;-69
2023/02/03 12:36:42;;;;;;;13.80;3.57;;;9.40;99.90;;;;;;5082424;28;20466;-69
2023/02/03 12:39:19;;;;;;;17.10;4.63;;;9.50;99.90;;;;;;5080190;28;20458;-67
2023/02/03 12:41:50;;;;;;;22.23;4.20;;;9.50;99.90;;;;;;5080337;28;20470;-69
2023/02/03 12:44:21;;;;;;;16.40;4.00;;;9.50;99.90;;;;;;5079694;28;20517;-69
2023/02/03 12:46:55;;;;;;;19.90;4.40;;;9.50;99.90;;;;;;5077044;28;20978;-68
2023/02/03 12:49:32;;;;;;;17.13;5.03;;;9.70;99.90;;;;;;5077631;28;20469;-69
2023/02/03 12:52:05;;;;;;;18.20;4.43;;;9.50;99.90;;;;;;5077887;28;20534;-69
2023/02/03 12:54:44;;;;;;;18.37;4.67;;;9.20;99.90;;;;;;5076037;28;20521;-67
2023/02/03 12:57:20;;;;;;;13.00;2.83;;;8.90;99.90;;;;;;5076557;28;20446;-68
2023/02/03 13:00:02;;;;;;;4.20;1.50;;;8.10;99.90;;;;;;5076226;28;20497;-68
2023/02/03 13:02:34;;;;;;;5.00;1.50;;;7.00;99.90;;;;;;5076591;28;20470;-69
2023/02/03 13:05:09;;;;;;;5.77;2.00;;;6.20;99.90;;;;;;5076307;28;20510;-68
2023/02/03 13:07:48;;;;;;;4.87;1.80;;;5.70;99.90;;;;;;5076225;28;20524;-69